createdAt,value
2023-02-19T00:02:32.391Z,9.86
2023-02-19T00:05:35.747Z,9.91
2023-02-19T00:08:40.001Z,9.89
2023-02-19T00:11:43.671Z,9.77
2023-02-19T00:14:48.080Z,9.71
2023-02-19T00:17:51.315Z,9.72
2023-02-19T00:20:58.622Z,9.59
2023-02-19T00:24:04.450Z,9.51
2023-02-19T00:27:07.389Z,9.39
2023-02-19T00:30:12.189Z,9.43
2023-02-19T00:33:16.386Z,9.49
2023-02-19T00:36:20.402Z,9.51
2023-02-19T00:39:23.456Z,9.37
2023-02-19T00:42:27.710Z,9.38
2023-02-19T00:45:30.868Z,9.28
2023-02-19T00:48:34.902Z,9.14
2023-02-19T00:51:38.583Z,9.36
2023-02-19T00:54:42.282Z,9.40
2023-02-19T00:57:45.319Z,9.42
2023-02-19T01:00:48.763Z,9.45
2023-02-19T01:03:51.721Z,9.44
2023-02-19T01:06:55.179Z,9.43
2023-02-19T01:09:58.355Z,9.58
2023-02-19T01:13:01.603Z,9.60
2023-02-19T01:16:12.932Z,9.57
2023-02-19T01:19:16.332Z,9.68
2023-02-19T01:22:20.494Z,9.78
2023-02-19T01:25:23.879Z,9.77
2023-02-19T01:28:27.765Z,9.80
2023-02-19T01:31:31.188Z,9.97
2023-02-19T01:34:34.814Z,9.94
2023-02-19T01:37:38.264Z,9.96
2023-02-19T01:40:41.178Z,9.93
2023-02-19T01:43:57.313Z,10.25
2023-02-19T01:47:01.679Z,10.27
2023-02-19T01:50:05.276Z,10.20
2023-02-19T01:53:09.824Z,10.10
2023-02-19T01:56:17.964Z,10.03
2023-02-19T01:59:20.927Z,10.04
2023-02-19T02:02:27.476Z,10.11
2023-02-19T02:05:50.962Z,10.14
2023-02-19T02:09:15.707Z,10.14
2023-02-19T02:12:19.007Z,10.28
2023-02-19T02:15:25.159Z,10.34
2023-02-19T02:18:54.257Z,10.38
2023-02-19T02:22:17.070Z,10.36
2023-02-19T02:25:32.870Z,10.27
2023-02-19T02:29:08.282Z,10.21
2023-02-19T02:32:22.177Z,10.17
2023-02-19T02:35:30.650Z,10.09
2023-02-19T02:38:39.850Z,9.92
2023-02-19T02:42:09.944Z,9.91
2023-02-19T02:45:37.046Z,9.96
2023-02-19T02:48:58.205Z,9.82
2023-02-19T02:52:22.023Z,9.66
2023-02-19T02:55:25.589Z,9.47
2023-02-19T02:58:29.488Z,9.16
2023-02-19T03:02:14.261Z,9.22
2023-02-19T03:05:41.364Z,9.15
2023-02-19T03:08:49.816Z,9.01
2023-02-19T03:12:12.987Z,9.01
2023-02-19T03:15:35.836Z,8.88
2023-02-19T03:18:59.793Z,8.86
2023-02-19T03:22:11.818Z,8.77
2023-02-19T03:25:40.695Z,8.68
2023-02-19T03:29:04.414Z,8.75
2023-02-19T03:32:16.960Z,8.77
2023-02-19T03:35:23.946Z,8.80
2023-02-19T03:38:37.054Z,8.76
2023-02-19T03:41:54.997Z,8.80
2023-02-19T03:45:26.748Z,8.76
2023-02-19T03:48:37.444Z,8.81
2023-02-19T03:51:45.180Z,8.75
2023-02-19T03:55:00.955Z,8.77
2023-02-19T03:58:12.443Z,8.57
2023-02-19T04:01:27.976Z,8.62
2023-02-19T04:04:37.809Z,8.60
2023-02-19T04:07:45.052Z,8.53
2023-02-19T04:10:49.960Z,8.48
2023-02-19T04:14:06.795Z,8.43
2023-02-19T04:17:17.713Z,8.34
2023-02-19T04:20:22.442Z,8.35
2023-02-19T04:23:27.194Z,8.40
2023-02-19T04:26:31.132Z,8.21
2023-02-19T04:29:34.487Z,8.22
2023-02-19T04:32:37.424Z,8.14
2023-02-19T04:35:40.772Z,8.24
2023-02-19T04:38:43.807Z,8.29
2023-02-19T04:41:47.013Z,8.21
2023-02-19T04:44:49.940Z,8.30
2023-02-19T04:47:53.886Z,8.40
2023-02-19T04:50:57.282Z,8.42
2023-02-19T04:54:00.596Z,8.48
2023-02-19T04:57:03.618Z,8.59
2023-02-19T05:00:08.301Z,8.68
2023-02-19T05:03:11.512Z,8.69
2023-02-19T05:06:15.069Z,8.54
2023-02-19T05:09:18.565Z,8.45
2023-02-19T05:12:21.974Z,8.32
2023-02-19T05:15:25.042Z,8.28
2023-02-19T05:18:30.255Z,8.19
2023-02-19T05:21:33.232Z,8.08
2023-02-19T05:24:37.614Z,7.77
2023-02-19T05:27:40.601Z,7.75
2023-02-19T05:30:53.447Z,7.77
2023-02-19T05:33:58.299Z,7.69
2023-02-19T05:37:01.398Z,7.69
2023-02-19T05:40:06.071Z,7.85
2023-02-19T05:43:09.679Z,7.98
2023-02-19T05:46:14.915Z,7.80
2023-02-19T05:49:18.249Z,7.85
2023-02-19T05:52:21.421Z,7.79
2023-02-19T05:55:24.720Z,7.85
2023-02-19T05:58:28.048Z,8.02
2023-02-19T06:01:31.642Z,8.12
2023-02-19T06:04:34.969Z,8.22
2023-02-19T06:07:39.680Z,8.09
2023-02-19T06:10:43.504Z,8.26
2023-02-19T06:13:46.579Z,8.26
2023-02-19T06:16:49.800Z,8.22
2023-02-19T06:19:52.713Z,8.26
2023-02-19T06:22:57.401Z,8.24
2023-02-19T06:26:07.820Z,8.32
2023-02-19T06:29:11.456Z,8.39
2023-02-19T06:32:15.002Z,8.56
2023-02-19T06:35:18.326Z,8.58
2023-02-19T06:38:22.507Z,8.70
2023-02-19T06:41:26.926Z,8.85
2023-02-19T06:44:29.847Z,8.87
2023-02-19T06:47:33.289Z,8.79
2023-02-19T06:50:36.179Z,8.77
2023-02-19T06:53:39.438Z,8.82
2023-02-19T06:56:42.486Z,8.82
2023-02-19T06:59:48.790Z,8.79
2023-02-19T07:02:56.688Z,8.80
2023-02-19T07:06:01.049Z,8.83
2023-02-19T07:09:05.824Z,8.84
2023-02-19T07:12:10.237Z,8.77
2023-02-19T07:15:13.191Z,8.70
2023-02-19T07:18:16.385Z,8.81
2023-02-19T07:21:19.838Z,8.77
2023-02-19T07:24:23.100Z,8.78
2023-02-19T07:27:26.026Z,8.87
2023-02-19T07:30:30.623Z,8.94
2023-02-19T07:33:33.624Z,8.85
2023-02-19T07:36:37.855Z,8.91
2023-02-19T07:39:40.823Z,9.02
2023-02-19T07:42:44.061Z,8.99
2023-02-19T07:45:47.245Z,9.01
2023-02-19T07:48:50.577Z,9.05
2023-02-19T07:51:53.693Z,9.03
2023-02-19T07:54:56.928Z,9.04
2023-02-19T07:58:00.858Z,9.10
2023-02-19T08:01:18.424Z,9.02
2023-02-19T08:04:21.991Z,9.01
2023-02-19T08:07:24.860Z,9.00
2023-02-19T08:10:47.356Z,8.91
2023-02-19T08:13:51.633Z,8.77
2023-02-19T08:16:55.623Z,8.72
2023-02-19T08:19:58.682Z,8.70
2023-02-19T08:23:02.961Z,8.69
2023-02-19T08:26:06.755Z,8.66
2023-02-19T08:29:10.144Z,8.62
2023-02-19T08:32:43.976Z,8.43
2023-02-19T08:36:15.965Z,8.54
2023-02-19T08:39:21.041Z,8.64
2023-02-19T08:42:25.471Z,8.52
2023-02-19T08:45:28.411Z,8.62
2023-02-19T08:48:33.191Z,8.52
2023-02-19T08:51:36.160Z,8.64
2023-02-19T08:54:42.113Z,8.52
2023-02-19T08:57:45.860Z,8.47
2023-02-19T09:00:49.164Z,8.41
2023-02-19T09:03:53.306Z,8.45
2023-02-19T09:06:56.551Z,8.50
2023-02-19T09:10:00.793Z,8.50
2023-02-19T09:13:04.112Z,8.70
2023-02-19T09:16:07.267Z,8.68
2023-02-19T09:19:10.485Z,8.79
2023-02-19T09:22:13.156Z,9.00
2023-02-19T09:25:16.395Z,9.20
2023-02-19T09:28:19.423Z,9.23
2023-02-19T09:31:22.783Z,9.42
2023-02-19T09:34:27.175Z,9.63
2023-02-19T09:37:31.554Z,9.73
2023-02-19T09:40:37.929Z,9.90
2023-02-19T09:43:41.128Z,9.91
2023-02-19T09:46:49.842Z,9.78
2023-02-19T09:49:59.193Z,9.71
2023-02-19T09:53:05.177Z,9.99
2023-02-19T09:56:09.189Z,10.13
2023-02-19T09:59:20.020Z,9.99
2023-02-19T10:02:26.051Z,10.21
2023-02-19T10:05:30.140Z,10.32
2023-02-19T10:08:38.386Z,10.36
2023-02-19T10:11:42.432Z,10.35
2023-02-19T10:14:49.899Z,10.57
2023-02-19T10:17:53.351Z,10.63
2023-02-19T10:20:57.702Z,10.73
2023-02-19T10:24:03.417Z,10.69
2023-02-19T10:27:12.225Z,10.63
2023-02-19T10:30:24.321Z,10.68
2023-02-19T10:33:28.249Z,10.63
2023-02-19T10:36:33.999Z,10.72
2023-02-19T10:39:42.372Z,10.67
2023-02-19T10:42:52.956Z,10.77
2023-02-19T10:45:57.234Z,10.84
2023-02-19T10:49:05.008Z,10.92
2023-02-19T10:52:31.220Z,11.18
2023-02-19T10:55:38.023Z,11.46
2023-02-19T10:58:44.994Z,11.55
2023-02-19T11:01:56.952Z,11.83
2023-02-19T11:05:16.224Z,11.85
2023-02-19T11:08:23.937Z,11.95
2023-02-19T11:11:30.595Z,12.10
2023-02-19T11:14:35.259Z,12.25
2023-02-19T11:17:38.793Z,12.39
2023-02-19T11:21:00.496Z,12.48
2023-02-19T11:24:04.645Z,12.64
2023-02-19T11:27:18.716Z,12.36
2023-02-19T11:30:35.753Z,12.52
2023-02-19T11:34:04.728Z,12.69
2023-02-19T11:37:13.989Z,12.67
2023-02-19T11:40:18.079Z,12.38
2023-02-19T11:43:28.381Z,12.63
2023-02-19T11:46:47.859Z,12.74
2023-02-19T11:50:01.099Z,13.09
2023-02-19T11:53:05.916Z,12.94
2023-02-19T11:56:34.200Z,12.65
2023-02-19T11:59:56.315Z,12.71
2023-02-19T12:03:22.958Z,12.73
2023-02-19T12:06:35.002Z,13.19
2023-02-19T12:09:49.313Z,13.04
2023-02-19T12:13:17.481Z,13.77
2023-02-19T12:16:31.536Z,13.06
2023-02-19T12:19:45.276Z,12.23
2023-02-19T12:22:54.525Z,11.56
2023-02-19T12:26:31.264Z,11.44
2023-02-19T12:29:41.755Z,11.52
2023-02-19T12:33:07.408Z,11.72
2023-02-19T12:36:20.372Z,11.93
2023-02-19T12:39:40.613Z,12.31
2023-02-19T12:42:57.112Z,13.92
2023-02-19T12:46:07.870Z,14.42
2023-02-19T12:49:32.526Z,13.91
2023-02-19T12:52:42.393Z,14.39
2023-02-19T12:55:46.890Z,13.55
2023-02-19T12:58:54.704Z,13.01
2023-02-19T13:02:11.720Z,12.75
2023-02-19T13:05:39.076Z,12.58
2023-02-19T13:09:06.307Z,12.73
2023-02-19T13:12:19.191Z,12.80
2023-02-19T13:15:35.355Z,12.77
2023-02-19T13:18:49.026Z,12.45
2023-02-19T13:22:41.489Z,12.31
2023-02-19T13:26:11.865Z,12.05
2023-02-19T13:29:18.487Z,12.13
2023-02-19T13:33:00.109Z,12.50
2023-02-19T13:36:09.891Z,13.62
2023-02-19T13:39:17.909Z,12.45
2023-02-19T13:42:34.949Z,12.09
2023-02-19T13:45:42.749Z,11.98
2023-02-19T13:48:46.525Z,11.81
2023-02-19T13:51:58.437Z,13.05
2023-02-19T13:55:41.532Z,14.37
2023-02-19T13:59:01.777Z,12.34
2023-02-19T14:02:05.885Z,11.57
2023-02-19T14:05:11.903Z,11.37
2023-02-19T14:08:48.296Z,11.41
2023-02-19T14:12:10.890Z,12.26
2023-02-19T14:15:45.494Z,11.19
2023-02-19T14:18:50.967Z,11.03
2023-02-19T14:21:55.122Z,10.88
2023-02-19T14:24:59.847Z,10.77
2023-02-19T14:28:05.972Z,10.82
2023-02-19T14:31:18.293Z,11.09
2023-02-19T14:34:28.470Z,12.02
2023-02-19T14:37:33.409Z,12.17
2023-02-19T14:40:39.805Z,11.96
2023-02-19T14:43:45.433Z,11.73
2023-02-19T14:47:04.129Z,11.20
2023-02-19T14:50:16.470Z,10.96
2023-02-19T14:53:21.533Z,10.79
2023-02-19T14:56:33.324Z,10.67
2023-02-19T14:59:37.934Z,10.49
2023-02-19T15:02:43.843Z,10.33
2023-02-19T15:05:49.776Z,10.35
2023-02-19T15:09:00.436Z,10.28
2023-02-19T15:12:05.322Z,10.21
2023-02-19T15:15:21.276Z,10.19
2023-02-19T15:18:27.357Z,10.05
2023-02-19T15:21:40.001Z,10.14
2023-02-19T15:24:48.684Z,10.08
2023-02-19T15:27:53.674Z,10.05
2023-02-19T15:30:59.108Z,9.99
2023-02-19T15:34:04.120Z,10.04
2023-02-19T15:37:11.391Z,10.05
2023-02-19T15:40:17.148Z,10.05
2023-02-19T15:43:32.514Z,9.99
2023-02-19T15:46:37.524Z,10.01
2023-02-19T15:49:57.878Z,9.99
2023-02-19T15:53:13.337Z,10.03
2023-02-19T15:56:28.765Z,9.96
2023-02-19T15:59:41.236Z,9.90
2023-02-19T16:02:53.064Z,9.84
2023-02-19T16:06:15.636Z,9.74
2023-02-19T16:09:35.571Z,9.43
2023-02-19T16:12:41.847Z,9.12
2023-02-19T16:15:46.884Z,8.79
2023-02-19T16:18:52.530Z,8.59
2023-02-19T16:21:56.938Z,8.44
2023-02-19T16:25:04.103Z,8.31
2023-02-19T16:28:19.616Z,8.29
2023-02-19T16:31:30.135Z,8.32
2023-02-19T16:34:51.806Z,8.35
2023-02-19T16:38:00.672Z,8.39
2023-02-19T16:41:13.605Z,8.25
2023-02-19T16:44:36.431Z,8.27
2023-02-19T16:47:45.439Z,8.22
2023-02-19T16:50:50.394Z,8.22
2023-02-19T16:53:54.527Z,8.24
2023-02-19T16:57:01.049Z,8.34
2023-02-19T17:00:05.585Z,8.17
2023-02-19T17:03:13.510Z,8.16
2023-02-19T17:06:17.719Z,8.07
2023-02-19T17:09:23.396Z,8.14
2023-02-19T17:12:28.005Z,8.09
2023-02-19T17:15:32.871Z,8.08
2023-02-19T17:18:37.856Z,8.06
2023-02-19T17:21:42.992Z,8.13
2023-02-19T17:24:48.453Z,8.05
2023-02-19T17:27:52.699Z,8.05
2023-02-19T17:30:56.915Z,7.94
2023-02-19T17:34:01.038Z,7.83
2023-02-19T17:37:06.571Z,7.84
2023-02-19T17:40:32.860Z,7.88
2023-02-19T17:43:38.478Z,7.65
2023-02-19T17:46:59.626Z,7.73
2023-02-19T17:50:07.653Z,7.57
2023-02-19T17:53:12.670Z,7.60
2023-02-19T17:56:21.879Z,7.57
2023-02-19T17:59:27.784Z,7.54
2023-02-19T18:02:32.939Z,7.46
2023-02-19T18:05:37.812Z,7.38
2023-02-19T18:09:05.217Z,7.39
2023-02-19T18:12:11.463Z,7.30
2023-02-19T18:15:22.671Z,7.29
2023-02-19T18:18:38.558Z,7.21
2023-02-19T18:21:49.947Z,7.21
2023-02-19T18:25:11.966Z,7.15
2023-02-19T18:28:16.063Z,7.14
2023-02-19T18:34:40.282Z,7.07
2023-02-19T18:37:54.799Z,6.98
2023-02-19T18:41:08.904Z,7.03
2023-02-19T18:44:27.133Z,6.92
2023-02-19T18:47:40.130Z,6.97
2023-02-19T18:50:56.599Z,6.84
2023-02-19T18:54:18.013Z,6.86
2023-02-19T18:57:38.162Z,6.80
2023-02-19T19:00:44.893Z,6.65
2023-02-19T19:03:49.139Z,6.68
2023-02-19T19:06:56.449Z,6.54
2023-02-19T19:10:08.202Z,6.50
2023-02-19T19:13:16.434Z,6.52
2023-02-19T19:16:42.782Z,6.51
2023-02-19T19:19:49.549Z,6.52
2023-02-19T19:22:54.667Z,6.49
2023-02-19T19:26:00.083Z,6.52
2023-02-19T19:29:09.552Z,6.47
2023-02-19T19:32:18.292Z,6.58
2023-02-19T19:35:32.070Z,6.71
2023-02-19T19:38:38.390Z,6.63
2023-02-19T19:41:53.039Z,6.64
2023-02-19T19:44:59.404Z,6.66
2023-02-19T19:48:05.845Z,6.65
2023-02-19T19:51:10.923Z,6.65
2023-02-19T19:54:16.833Z,6.61
2023-02-19T19:57:23.162Z,6.57
2023-02-19T20:00:29.589Z,6.43
2023-02-19T20:03:35.263Z,6.45
2023-02-19T20:06:41.387Z,6.31
2023-02-19T20:09:50.248Z,6.29
2023-02-19T20:12:54.474Z,6.18
2023-02-19T20:16:04.804Z,6.12
2023-02-19T20:19:09.709Z,6.09
2023-02-19T20:22:16.844Z,6.02
2023-02-19T20:25:22.200Z,5.91
2023-02-19T20:28:26.549Z,5.79
2023-02-19T20:31:32.847Z,5.70
2023-02-19T20:34:38.452Z,5.64
2023-02-19T20:37:50.914Z,5.56
2023-02-19T20:40:56.673Z,5.53
2023-02-19T20:44:04.716Z,5.48
2023-02-19T20:47:12.092Z,5.48
2023-02-19T20:50:19.364Z,5.36
2023-02-19T20:53:24.248Z,5.22
2023-02-19T20:56:30.171Z,5.16
2023-02-19T20:59:43.522Z,5.09
2023-02-19T21:02:47.580Z,5.04
2023-02-19T21:05:54.379Z,4.91
2023-02-19T21:08:58.846Z,4.88
2023-02-19T21:12:03.523Z,4.81
2023-02-19T21:15:09.015Z,4.80
2023-02-19T21:18:13.239Z,4.74
2023-02-19T21:21:20.684Z,4.66
2023-02-19T21:24:27.057Z,4.58
2023-02-19T21:27:30.974Z,4.45
2023-02-19T21:30:35.163Z,4.41
2023-02-19T21:33:38.829Z,4.35
2023-02-19T21:36:44.142Z,4.37
2023-02-19T21:39:47.924Z,4.22
2023-02-19T21:42:52.556Z,4.19
2023-02-19T21:45:57.800Z,4.07
2023-02-19T21:49:01.684Z,4.01
2023-02-19T21:52:04.968Z,4.02
2023-02-19T21:55:10.499Z,3.97
2023-02-19T21:58:15.988Z,3.91
2023-02-19T22:01:24.324Z,3.81
2023-02-19T22:04:27.983Z,3.88
2023-02-19T22:07:31.061Z,3.76
2023-02-19T22:10:34.694Z,3.71
2023-02-19T22:13:37.739Z,3.64
2023-02-19T22:16:41.275Z,3.62
2023-02-19T22:19:44.270Z,3.55
2023-02-19T22:22:47.676Z,3.50
2023-02-19T22:25:50.678Z,3.60
2023-02-19T22:28:54.758Z,3.47
2023-02-19T22:31:57.993Z,3.46
2023-02-19T22:35:01.619Z,3.54
2023-02-19T22:38:04.695Z,3.27
2023-02-19T22:41:08.004Z,3.26
2023-02-19T22:44:11.577Z,3.17
2023-02-19T22:47:15.340Z,3.05
2023-02-19T22:50:22.484Z,3.15
2023-02-19T22:53:26.681Z,3.13
2023-02-19T22:56:29.722Z,3.06
2023-02-19T22:59:33.696Z,2.97
2023-02-19T23:02:36.701Z,3.15
2023-02-19T23:05:40.132Z,3.18
2023-02-19T23:08:43.974Z,3.15
2023-02-19T23:11:47.916Z,3.15
2023-02-19T23:14:50.916Z,3.10
2023-02-19T23:17:54.316Z,3.11
2023-02-19T23:20:57.447Z,3.13
2023-02-19T23:24:00.886Z,3.11
2023-02-19T23:27:03.879Z,3.12
2023-02-19T23:30:07.675Z,2.99
2023-02-19T23:33:10.736Z,3.02
2023-02-19T23:36:15.086Z,3.02
2023-02-19T23:39:20.475Z,3.01
2023-02-19T23:42:23.761Z,3.01
2023-02-19T23:45:27.014Z,2.91
2023-02-19T23:48:30.460Z,2.87
2023-02-19T23:51:33.456Z,2.93
2023-02-19T23:54:36.703Z,2.89
2023-02-19T23:57:40.084Z,2.77
